Time;durP1;ratioP1;P1;durP2;ratioP2;P2;SDS_P1;SDS_P2;PMS_P1;PMS_P2;Temp;Humidity;BMP_temperature;BMP_pressure;BME280_temperature;BME280_humidity;BME280_pressure;Samples;Min_cycle;Max_cycle;Signal;HPM_P1;HPM_P2
2024/01/27 00:00:10;;;;;;;24.85;3.70;;;;;;;;;;5037619;28;20886;-67
2024/01/27 00:02:36;;;;;;;6.78;3.40;;;;;;;;;;5050318;28;20479;-66
2024/01/27 00:05:02;;;;;;;12.82;3.58;;;;;;;;;;5046082;28;20036;-69
2024/01/27 00:07:28;;;;;;;15.40;3.80;;;;;;;;;;5032505;28;20045;-68
2024/01/27 00:09:54;;;;;;;10.13;3.20;;;;;;;;;;5047737;28;20025;-69
2024/01/27 00:12:19;;;;;;;8.02;2.33;;;;;;;;;;5050393;28;20094;-69
2024/01/27 00:14:44;;;;;;;7.90;3.10;;;;;;;;;;5046128;28;20488;-69
2024/01/27 00:17:10;;;;;;;13.70;3.20;;;;;;;;;;5048032;28;20103;-64
2024/01/27 00:19:35;;;;;;;6.47;2.42;;;;;;;;;;5049791;28;20033;-66
2024/01/27 00:22:01;;;;;;;18.63;3.72;;;;;;;;;;5049350;28;20037;-65
2024/01/27 00:24:26;;;;;;;11.77;3.72;;;;;;;;;;5049833;28;20060;-66
2024/01/27 00:26:51;;;;;;;16.65;4.18;;;;;;;;;;5044009;28;20071;-66
2024/01/27 00:29:16;;;;;;;5.70;3.17;;;;;;;;;;5049951;28;20072;-65
2024/01/27 00:31:42;;;;;;;10.02;3.38;;;;;;;;;;5039539;28;20034;-66
2024/01/27 00:34:07;;;;;;;12.68;4.50;;;;;;;;;;5046755;28;20037;-65
2024/01/27 00:36:32;;;;;;;13.18;2.58;;;;;;;;;;5046106;28;20037;-65
2024/01/27 00:38:58;;;;;;;17.50;3.13;;;;;;;;;;5051782;28;20036;-66
2024/01/27 00:41:23;;;;;;;8.68;2.80;;;;;;;;;;5051958;28;20037;-67
2024/01/27 00:43:48;;;;;;;12.18;2.50;;;;;;;;;;5047350;28;20490;-66
2024/01/27 00:46:14;;;;;;;8.10;2.60;;;;;;;;;;5049789;28;20029;-65
2024/01/27 00:48:39;;;;;;;4.10;2.00;;;;;;;;;;5048999;28;20032;-69
2024/01/27 00:51:05;;;;;;;6.53;2.65;;;;;;;;;;5039286;28;20041;-66
2024/01/27 00:53:30;;;;;;;8.35;2.40;;;;;;;;;;5049458;28;20091;-66
2024/01/27 00:55:55;;;;;;;6.75;2.83;;;;;;;;;;5048954;28;20033;-65
2024/01/27 00:58:21;;;;;;;8.93;4.40;;;;;;;;;;5049887;28;20047;-68
2024/01/27 01:00:46;;;;;;;10.63;3.40;;;;;;;;;;5046667;28;20591;-66
2024/01/27 01:03:11;;;;;;;10.68;2.35;;;;;;;;;;5050058;28;20048;-65
2024/01/27 01:05:37;;;;;;;16.98;3.10;;;;;;;;;;5046459;28;20139;-66
2024/01/27 01:08:03;;;;;;;12.15;3.33;;;;;;;;;;5050162;28;20447;-68
2024/01/27 01:10:29;;;;;;;11.30;2.10;;;;;;;;;;5048550;28;20434;-66
2024/01/27 01:12:54;;;;;;;6.10;2.78;;;;;;;;;;5049670;28;20037;-68
2024/01/27 01:15:19;;;;;;;10.30;2.88;;;;;;;;;;5048537;28;20074;-67
2024/01/27 01:17:45;;;;;;;12.20;3.67;;;;;;;;;;5051117;28;20492;-68
2024/01/27 01:20:11;;;;;;;21.92;4.20;;;;;;;;;;5048843;28;20032;-68
2024/01/27 01:22:36;;;;;;;14.07;3.33;;;;;;;;;;5051308;28;20060;-67
2024/01/27 01:25:02;;;;;;;9.77;2.97;;;;;;;;;;5049753;28;20072;-68
2024/01/27 01:27:27;;;;;;;7.38;2.20;;;;;;;;;;5050809;28;20033;-67
2024/01/27 01:29:52;;;;;;;13.88;3.65;;;;;;;;;;5045056;28;20036;-68
2024/01/27 01:32:18;;;;;;;15.35;2.42;;;;;;;;;;5033191;28;20044;-67
2024/01/27 01:34:43;;;;;;;5.85;2.35;;;;;;;;;;5046234;28;20033;-67
2024/01/27 01:37:08;;;;;;;21.63;3.28;;;;;;;;;;5050793;28;20120;-67
2024/01/27 01:39:34;;;;;;;12.60;2.38;;;;;;;;;;5046443;28;20029;-67
2024/01/27 01:41:59;;;;;;;11.35;2.58;;;;;;;;;;5050731;28;20040;-68
2024/01/27 01:44:30;;;;;;;10.70;2.10;;;;;;;;;;5049206;28;20103;-67
2024/01/27 01:46:55;;;;;;;4.53;2.10;;;;;;;;;;5032937;28;20032;-68
2024/01/27 01:49:21;;;;;;;5.80;2.97;;;;;;;;;;5031853;28;20052;-67
2024/01/27 01:51:46;;;;;;;7.80;2.28;;;;;;;;;;5049609;28;20118;-68
2024/01/27 01:54:12;;;;;;;22.10;3.17;;;;;;;;;;5032113;28;20040;-67
2024/01/27 01:56:37;;;;;;;5.65;2.25;;;;;;;;;;5047381;28;20071;-66
2024/01/27 01:59:03;;;;;;;6.85;3.08;;;;;;;;;;5048119;28;20096;-67
2024/01/27 02:01:28;;;;;;;4.13;2.60;;;;;;;;;;5049699;28;20108;-67
2024/01/27 02:03:54;;;;;;;9.13;2.92;;;;;;;;;;5046620;28;20391;-67
2024/01/27 02:06:20;;;;;;;6.70;3.20;;;;;;;;;;5028297;28;20428;-66
2024/01/27 02:08:45;;;;;;;17.63;3.08;;;;;;;;;;5029612;28;20120;-68
2024/01/27 02:11:10;;;;;;;13.70;3.22;;;;;;;;;;5044450;28;20045;-67
2024/01/27 02:13:36;;;;;;;7.97;2.70;;;;;;;;;;5049069;28;20463;-67
2024/01/27 02:16:01;;;;;;;11.02;2.65;;;;;;;;;;5027102;28;20036;-69
2024/01/27 02:18:26;;;;;;;3.50;1.55;;;;;;;;;;5049375;28;20071;-67
2024/01/27 02:20:52;;;;;;;4.90;2.05;;;;;;;;;;5044557;28;20036;-67
2024/01/27 02:23:17;;;;;;;7.45;1.95;;;;;;;;;;5050198;28;20087;-67
2024/01/27 02:25:42;;;;;;;8.55;2.30;;;;;;;;;;5029185;28;20043;-68
2024/01/27 02:28:08;;;;;;;8.50;2.33;;;;;;;;;;5049997;28;20594;-67
2024/01/27 02:30:33;;;;;;;5.85;2.17;;;;;;;;;;5048148;28;20504;-67
2024/01/27 02:32:59;;;;;;;13.85;2.67;;;;;;;;;;5050136;28;20052;-66
2024/01/27 02:35:24;;;;;;;10.80;2.13;;;;;;;;;;5049149;28;20518;-67
2024/01/27 02:37:50;;;;;;;6.32;2.00;;;;;;;;;;5050000;28;20033;-67
2024/01/27 02:40:15;;;;;;;4.53;1.92;;;;;;;;;;5049280;28;20044;-68
2024/01/27 02:42:44;;;;;;;5.90;2.35;;;;;;;;;;5049473;28;20052;-68
2024/01/27 02:45:11;;;;;;;16.55;2.92;;;;;;;;;;5043874;28;20159;-67
2024/01/27 02:47:36;;;;;;;6.47;2.13;;;;;;;;;;5049847;28;20052;-66
2024/01/27 02:50:02;;;;;;;12.93;2.58;;;;;;;;;;5046853;28;20025;-67
2024/01/27 02:52:27;;;;;;;8.27;2.97;;;;;;;;;;5031158;28;20163;-67
2024/01/27 02:54:53;;;;;;;8.38;3.85;;;;;;;;;;5042021;28;20044;-68
2024/01/27 02:57:19;;;;;;;7.90;3.22;;;;;;;;;;5044367;28;20032;-67
2024/01/27 02:59:47;;;;;;;11.05;2.53;;;;;;;;;;5049127;28;20087;-68
2024/01/27 03:02:13;;;;;;;6.78;2.47;;;;;;;;;;5049412;28;20056;-67
2024/01/27 03:04:38;;;;;;;4.03;1.63;;;;;;;;;;5046933;28;20383;-69
2024/01/27 03:07:04;;;;;;;8.25;2.67;;;;;;;;;;5046984;28;20040;-68
2024/01/27 03:09:30;;;;;;;11.43;2.08;;;;;;;;;;5047883;28;20123;-66
2024/01/27 03:11:56;;;;;;;4.63;1.90;;;;;;;;;;5032207;28;20533;-66
2024/01/27 03:14:21;;;;;;;7.95;1.83;;;;;;;;;;5043569;28;20059;-67
2024/01/27 03:16:46;;;;;;;2.58;1.63;;;;;;;;;;5048814;28;20048;-68
2024/01/27 03:19:12;;;;;;;7.18;2.03;;;;;;;;;;5046192;28;20048;-67
2024/01/27 03:21:37;;;;;;;5.25;2.10;;;;;;;;;;5051329;28;20040;-67
2024/01/27 03:24:03;;;;;;;6.32;2.15;;;;;;;;;;5052757;28;20041;-67
2024/01/27 03:26:28;;;;;;;20.10;2.47;;;;;;;;;;5053261;28;20084;-67
2024/01/27 03:28:54;;;;;;;6.05;1.95;;;;;;;;;;5049119;28;20098;-66
2024/01/27 03:31:19;;;;;;;9.48;2.85;;;;;;;;;;5050803;28;20040;-66
2024/01/27 03:33:44;;;;;;;7.10;2.10;;;;;;;;;;5051368;28;20112;-68
2024/01/27 03:36:11;;;;;;;5.88;2.13;;;;;;;;;;5050703;28;20104;-67
2024/01/27 03:38:37;;;;;;;7.78;2.13;;;;;;;;;;5052526;28;20107;-67
2024/01/27 03:41:02;;;;;;;18.63;3.15;;;;;;;;;;5048733;28;20509;-67
2024/01/27 03:43:28;;;;;;;9.27;2.13;;;;;;;;;;5052661;28;20032;-66
2024/01/27 03:45:54;;;;;;;9.13;1.73;;;;;;;;;;5050502;28;20395;-67
2024/01/27 03:48:19;;;;;;;4.53;1.98;;;;;;;;;;5053186;28;20036;-67
2024/01/27 03:50:44;;;;;;;6.75;1.92;;;;;;;;;;5050848;28;20059;-67
2024/01/27 03:53:10;;;;;;;8.13;1.40;;;;;;;;;;5050526;28;20037;-66
2024/01/27 03:55:35;;;;;;;18.83;2.85;;;;;;;;;;5052250;28;20040;-66
2024/01/27 03:58:01;;;;;;;5.07;1.08;;;;;;;;;;5052175;28;20098;-67
2024/01/27 04:00:27;;;;;;;4.45;1.80;;;;;;;;;;5022648;28;20139;-67
2024/01/27 04:02:53;;;;;;;7.18;2.03;;;;;;;;;;5052817;28;20025;-67
2024/01/27 04:05:18;;;;;;;7.60;2.25;;;;;;;;;;5046459;28;20041;-66
2024/01/27 04:07:43;;;;;;;3.05;1.75;;;;;;;;;;5051478;28;20040;-66
2024/01/27 04:10:09;;;;;;;10.63;2.38;;;;;;;;;;5048951;28;20041;-67
2024/01/27 04:12:34;;;;;;;3.38;1.92;;;;;;;;;;5034881;28;20036;-68
2024/01/27 04:14:59;;;;;;;12.32;1.67;;;;;;;;;;5047474;28;20571;-69
2024/01/27 04:17:25;;;;;;;5.20;2.30;;;;;;;;;;5052450;28;20048;-68
2024/01/27 04:19:50;;;;;;;6.55;2.22;;;;;;;;;;5046986;28;20043;-68
2024/01/27 04:22:16;;;;;;;11.15;2.22;;;;;;;;;;5051138;28;20120;-68
2024/01/27 04:24:41;;;;;;;6.45;2.05;;;;;;;;;;5047519;28;20075;-67
2024/01/27 04:27:06;;;;;;;5.07;1.35;;;;;;;;;;5052153;28;20072;-69
2024/01/27 04:29:32;;;;;;;8.60;1.52;;;;;;;;;;5045124;28;20037;-67
2024/01/27 04:31:57;;;;;;;5.28;2.00;;;;;;;;;;5048294;28;20025;-65
2024/01/27 04:34:22;;;;;;;4.35;1.48;;;;;;;;;;5051779;28;20033;-67
2024/01/27 04:36:47;;;;;;;3.85;1.90;;;;;;;;;;5051792;28;20036;-68
2024/01/27 04:39:13;;;;;;;17.20;2.95;;;;;;;;;;5044796;28;20057;-67
2024/01/27 04:41:45;;;;;;;6.88;2.17;;;;;;;;;;5052189;28;20063;-67
2024/01/27 04:44:10;;;;;;;4.65;2.30;;;;;;;;;;5050828;28;20033;-67
2024/01/27 04:46:36;;;;;;;10.35;1.90;;;;;;;;;;5033720;28;20040;-66
2024/01/27 04:49:01;;;;;;;2.70;1.60;;;;;;;;;;5050777;28;20108;-67
2024/01/27 04:51:26;;;;;;;4.20;1.55;;;;;;;;;;5051702;28;20124;-67
2024/01/27 04:53:52;;;;;;;10.63;2.25;;;;;;;;;;5050407;28;20025;-67
2024/01/27 04:56:17;;;;;;;5.63;1.77;;;;;;;;;;5051756;28;20086;-67
2024/01/27 04:58:42;;;;;;;2.90;1.25;;;;;;;;;;5051065;28;20053;-67
2024/01/27 05:01:08;;;;;;;8.88;2.53;;;;;;;;;;5051338;28;20040;-67
2024/01/27 05:03:33;;;;;;;10.93;3.78;;;;;;;;;;5049914;28;20041;-67
2024/01/27 05:05:59;;;;;;;20.88;4.60;;;;;;;;;;5045240;28;20044;-67
2024/01/27 05:08:24;;;;;;;7.30;3.30;;;;;;;;;;5050250;28;20044;-68
2024/01/27 05:10:49;;;;;;;13.73;4.68;;;;;;;;;;5049182;28;20098;-67
2024/01/27 05:13:15;;;;;;;11.80;3.35;;;;;;;;;;5049100;28;20044;-67
2024/01/27 05:15:40;;;;;;;7.78;2.92;;;;;;;;;;5049858;28;20490;-67
2024/01/27 05:18:06;;;;;;;7.20;2.90;;;;;;;;;;5051413;28;20422;-67
2024/01/27 05:20:31;;;;;;;18.25;2.25;;;;;;;;;;5044957;28;20498;-67
2024/01/27 05:22:56;;;;;;;4.75;1.70;;;;;;;;;;5050250;28;20035;-68
2024/01/27 05:25:22;;;;;;;8.55;2.05;;;;;;;;;;5050659;28;20383;-68
2024/01/27 05:27:47;;;;;;;8.02;1.88;;;;;;;;;;5051000;28;20398;-67
2024/01/27 05:30:13;;;;;;;7.22;1.80;;;;;;;;;;5049881;28;20029;-68
2024/01/27 05:32:38;;;;;;;10.38;2.38;;;;;;;;;;5051323;28;20037;-67
2024/01/27 05:35:05;;;;;;;9.35;1.85;;;;;;;;;;5049146;28;20048;-66
2024/01/27 05:37:30;;;;;;;3.97;1.67;;;;;;;;;;5050935;28;20032;-66
2024/01/27 05:39:56;;;;;;;5.15;1.55;;;;;;;;;;5048580;28;20040;-67
2024/01/27 05:42:21;;;;;;;7.68;2.20;;;;;;;;;;5050657;28;20039;-67
2024/01/27 05:44:47;;;;;;;4.25;1.40;;;;;;;;;;5050361;28;20017;-68
2024/01/27 05:47:12;;;;;;;3.95;1.83;;;;;;;;;;5050654;28;20676;-67
2024/01/27 05:49:37;;;;;;;4.28;1.75;;;;;;;;;;5047446;28;20033;-67
2024/01/27 05:52:03;;;;;;;5.85;1.77;;;;;;;;;;5050881;28;20136;-67
2024/01/27 05:54:28;;;;;;;6.05;1.75;;;;;;;;;;5049242;28;20365;-66
2024/01/27 05:56:54;;;;;;;2.42;1.20;;;;;;;;;;5050606;28;20041;-68
2024/01/27 05:59:19;;;;;;;5.72;2.00;;;;;;;;;;5032360;28;20384;-67
2024/01/27 06:01:44;;;;;;;2.55;1.23;;;;;;;;;;5050145;28;20082;-68
2024/01/27 06:04:13;;;;;;;13.32;1.92;;;;;;;;;;5031083;28;20135;-66
2024/01/27 06:06:39;;;;;;;2.33;1.65;;;;;;;;;;5045665;28;20581;-67
2024/01/27 06:09:04;;;;;;;8.43;1.42;;;;;;;;;;5049143;28;20392;-66
2024/01/27 06:11:30;;;;;;;13.32;2.97;;;;;;;;;;5050331;28;20032;-66
2024/01/27 06:13:55;;;;;;;9.98;3.33;;;;;;;;;;5049646;28;20032;-67
2024/01/27 06:16:21;;;;;;;7.38;2.08;;;;;;;;;;5050096;28;20041;-67
2024/01/27 06:18:46;;;;;;;2.97;1.20;;;;;;;;;;5049574;28;21479;-66
2024/01/27 06:21:12;;;;;;;8.73;2.08;;;;;;;;;;5050371;28;20033;-66
2024/01/27 06:23:37;;;;;;;16.95;2.25;;;;;;;;;;5031374;28;20048;-65
2024/01/27 06:26:06;;;;;;;3.20;1.45;;;;;;;;;;5050160;28;20036;-65
2024/01/27 06:28:32;;;;;;;3.72;1.20;;;;;;;;;;5049483;28;20024;-66
2024/01/27 06:30:58;;;;;;;12.82;1.83;;;;;;;;;;5032046;28;20044;-66
2024/01/27 06:33:23;;;;;;;8.40;1.25;;;;;;;;;;5049462;28;20116;-67
2024/01/27 06:35:48;;;;;;;4.47;1.63;;;;;;;;;;5048899;28;20070;-66
2024/01/27 06:38:14;;;;;;;10.15;2.25;;;;;;;;;;5049392;28;20025;-67
2024/01/27 06:40:39;;;;;;;5.80;1.65;;;;;;;;;;5049709;28;20037;-66
2024/01/27 06:43:04;;;;;;;5.05;2.10;;;;;;;;;;5049907;28;20476;-66
2024/01/27 06:45:30;;;;;;;7.50;2.00;;;;;;;;;;5049564;28;20037;-66
2024/01/27 06:47:56;;;;;;;6.55;2.03;;;;;;;;;;5049869;28;20098;-66
2024/01/27 06:50:22;;;;;;;5.18;1.20;;;;;;;;;;5048990;28;20025;-66
2024/01/27 06:52:47;;;;;;;7.43;2.25;;;;;;;;;;5049498;28;20099;-67
2024/01/27 06:55:12;;;;;;;5.35;1.40;;;;;;;;;;5051318;28;20037;-67
2024/01/27 06:57:38;;;;;;;7.20;1.75;;;;;;;;;;5045961;28;20064;-67
2024/01/27 07:00:04;;;;;;;6.63;2.10;;;;;;;;;;5051847;28;20033;-67
2024/01/27 07:02:29;;;;;;;9.48;2.90;;;;;;;;;;5052290;28;20033;-66
2024/01/27 07:04:57;;;;;;;7.00;2.25;;;;;;;;;;5051835;28;20040;-67
2024/01/27 07:07:27;;;;;;;7.90;2.65;;;;;;;;;;5052751;28;20041;-67
2024/01/27 07:09:56;;;;;;;7.47;1.85;;;;;;;;;;5030877;28;20089;-69
2024/01/27 07:12:22;;;;;;;19.15;2.08;;;;;;;;;;5054106;28;20032;-68
2024/01/27 07:14:47;;;;;;;11.63;2.60;;;;;;;;;;5052903;28;20039;-68
2024/01/27 07:17:13;;;;;;;4.75;1.95;;;;;;;;;;5048201;28;20067;-66
2024/01/27 07:19:38;;;;;;;11.95;1.85;;;;;;;;;;5052883;28;20033;-65
2024/01/27 07:22:04;;;;;;;5.35;2.30;;;;;;;;;;5052265;28;20068;-65
2024/01/27 07:24:29;;;;;;;12.05;2.78;;;;;;;;;;5046248;28;20053;-67
2024/01/27 07:26:54;;;;;;;15.98;1.73;;;;;;;;;;5035415;28;20028;-66
2024/01/27 07:29:20;;;;;;;7.30;2.13;;;;;;;;;;5052715;28;20484;-66
2024/01/27 07:31:46;;;;;;;4.88;1.85;;;;;;;;;;5052928;28;20033;-67
2024/01/27 07:34:11;;;;;;;6.25;1.73;;;;;;;;;;5051566;28;20036;-66
2024/01/27 07:36:37;;;;;;;8.27;2.40;;;;;;;;;;5053587;28;20535;-67
2024/01/27 07:39:04;;;;;;;4.60;1.60;;;;;;;;;;5052009;28;20044;-66
2024/01/27 07:41:30;;;;;;;10.63;2.03;;;;;;;;;;5052959;28;20032;-68
2024/01/27 07:43:55;;;;;;;4.55;1.88;;;;;;;;;;5052331;28;20147;-67
2024/01/27 07:46:22;;;;;;;5.97;1.50;;;;;;;;;;5053195;28;20043;-66
2024/01/27 07:48:48;;;;;;;8.93;1.77;;;;;;;;;;5050176;28;20109;-68
2024/01/27 07:51:14;;;;;;;5.45;1.58;;;;;;;;;;5028315;28;20098;-67
2024/01/27 07:53:40;;;;;;;10.13;2.17;;;;;;;;;;5050990;28;20045;-66
2024/01/27 07:56:06;;;;;;;8.00;1.70;;;;;;;;;;5046065;28;20135;-67
2024/01/27 07:58:31;;;;;;;2.00;0.95;;;;;;;;;;5054192;28;20071;-66
2024/01/27 08:00:56;;;;;;;8.73;1.55;;;;;;;;;;5045509;28;20064;-67
2024/01/27 08:03:22;;;;;;;12.10;1.50;;;;;;;;;;5046974;28;20064;-66
2024/01/27 08:05:48;;;;;;;3.55;1.50;;;;;;;;;;5047778;28;20451;-66
2024/01/27 08:08:13;;;;;;;12.35;1.80;;;;;;;;;;5049907;28;20095;-66
2024/01/27 08:10:39;;;;;;;7.45;1.35;;;;;;;;;;5041784;28;20052;-68
2024/01/27 08:13:05;;;;;;;7.05;1.88;;;;;;;;;;5048368;28;20049;-67
2024/01/27 08:15:30;;;;;;;3.25;1.05;;;;;;;;;;5043673;28;20511;-68
2024/01/27 08:17:55;;;;;;;13.93;1.52;;;;;;;;;;5051459;28;20103;-68
2024/01/27 08:20:21;;;;;;;3.45;2.05;;;;;;;;;;5048437;28;20674;-68
2024/01/27 08:22:50;;;;;;;12.20;1.38;;;;;;;;;;5050374;28;20127;-67
2024/01/27 08:25:16;;;;;;;15.10;1.85;;;;;;;;;;5050166;28;20120;-68
2024/01/27 08:27:41;;;;;;;12.15;1.60;;;;;;;;;;5057477;28;20063;-68
2024/01/27 08:30:07;;;;;;;15.85;1.85;;;;;;;;;;5051811;28;20790;-66
2024/01/27 08:32:32;;;;;;;7.03;1.73;;;;;;;;;;5053045;28;20030;-66
2024/01/27 08:34:58;;;;;;;9.55;1.45;;;;;;;;;;5050366;28;20048;-68
2024/01/27 08:37:23;;;;;;;13.68;2.10;;;;;;;;;;5051586;28;20048;-68
2024/01/27 08:39:50;;;;;;;9.88;1.80;;;;;;;;;;5057775;28;20037;-68
2024/01/27 08:42:16;;;;;;;15.18;1.63;;;;;;;;;;5054635;28;20101;-68
2024/01/27 08:44:41;;;;;;;7.78;1.60;;;;;;;;;;5033049;28;20040;-67
2024/01/27 08:47:06;;;;;;;10.90;2.63;;;;;;;;;;5051832;28;20037;-67
2024/01/27 08:49:32;;;;;;;16.10;2.38;;;;;;;;;;5041898;28;20052;-67
2024/01/27 08:51:57;;;;;;;2.42;1.20;;;;;;;;;;5051749;28;20040;-68
2024/01/27 08:54:23;;;;;;;4.07;1.70;;;;;;;;;;5051919;28;20024;-67
2024/01/27 08:56:48;;;;;;;8.45;1.25;;;;;;;;;;5051739;28;20032;-68
2024/01/27 08:59:13;;;;;;;9.10;1.73;;;;;;;;;;5043743;28;20045;-66
2024/01/27 09:01:39;;;;;;;4.25;1.58;;;;;;;;;;5041731;28;20025;-67
2024/01/27 09:04:04;;;;;;;13.85;1.50;;;;;;;;;;5048443;28;20041;-67
2024/01/27 09:06:29;;;;;;;6.85;1.58;;;;;;;;;;5030896;28;20404;-68
2024/01/27 09:08:55;;;;;;;10.60;2.28;;;;;;;;;;5047647;28;20116;-67
2024/01/27 09:11:22;;;;;;;7.72;1.75;;;;;;;;;;5048707;28;20121;-68
2024/01/27 09:13:48;;;;;;;6.53;1.90;;;;;;;;;;5049507;28;20120;-67
2024/01/27 09:16:14;;;;;;;12.40;1.70;;;;;;;;;;5047588;28;20041;-66
2024/01/27 09:18:39;;;;;;;17.33;1.88;;;;;;;;;;5048834;28;20039;-66
2024/01/27 09:21:05;;;;;;;3.22;1.33;;;;;;;;;;5049653;28;20063;-68
2024/01/27 09:23:30;;;;;;;7.38;1.58;;;;;;;;;;5048395;28;20039;-67
2024/01/27 09:25:55;;;;;;;10.75;1.73;;;;;;;;;;5049520;28;20040;-67
2024/01/27 09:28:21;;;;;;;9.82;1.52;;;;;;;;;;5049558;28;20048;-69
2024/01/27 09:30:46;;;;;;;8.32;1.52;;;;;;;;;;5050050;28;20112;-67
2024/01/27 09:33:11;;;;;;;7.70;1.58;;;;;;;;;;5051761;28;20116;-67
2024/01/27 09:35:37;;;;;;;8.23;1.45;;;;;;;;;;5050679;28;20082;-67
2024/01/27 09:38:02;;;;;;;5.28;1.40;;;;;;;;;;5044103;28;20056;-67
2024/01/27 09:40:28;;;;;;;4.38;1.40;;;;;;;;;;5054939;28;20032;-66
2024/01/27 09:42:57;;;;;;;5.70;2.20;;;;;;;;;;5056343;28;20056;-67
2024/01/27 09:45:22;;;;;;;6.63;2.10;;;;;;;;;;5025553;28;20032;-68
2024/01/27 09:47:48;;;;;;;10.52;1.95;;;;;;;;;;5046080;28;20090;-67
2024/01/27 09:50:14;;;;;;;5.63;2.08;;;;;;;;;;5050479;28;20036;-67
2024/01/27 09:52:39;;;;;;;6.88;1.70;;;;;;;;;;5050712;28;20028;-67
2024/01/27 09:55:05;;;;;;;14.45;2.10;;;;;;;;;;5050684;28;20037;-67
2024/01/27 09:57:30;;;;;;;11.25;1.88;;;;;;;;;;5050388;28;20669;-67
2024/01/27 09:59:57;;;;;;;2.35;1.40;;;;;;;;;;5032725;28;20036;-68
2024/01/27 10:02:24;;;;;;;10.68;1.65;;;;;;;;;;5032808;28;20114;-67
2024/01/27 10:04:50;;;;;;;11.98;1.88;;;;;;;;;;5032204;28;20495;-67
2024/01/27 10:07:16;;;;;;;4.28;1.33;;;;;;;;;;5032561;28;20082;-67
2024/01/27 10:09:42;;;;;;;4.90;1.45;;;;;;;;;;5050355;28;20399;-67
2024/01/27 10:12:10;;;;;;;11.63;2.63;;;;;;;;;;5050020;28;20032;-67
2024/01/27 10:14:42;;;;;;;7.70;2.03;;;;;;;;;;5032658;28;20083;-69
2024/01/27 10:17:11;;;;;;;12.57;1.85;;;;;;;;;;5044510;28;20503;-67
2024/01/27 10:19:37;;;;;;;4.15;1.77;;;;;;;;;;5019197;28;20032;-68
2024/01/27 10:22:03;;;;;;;9.95;2.65;;;;;;;;;;5045480;28;20045;-67
2024/01/27 10:24:33;;;;;;;8.90;2.00;;;;;;;;;;5045090;28;20619;-68
2024/01/27 10:27:03;;;;;;;11.48;2.03;;;;;;;;;;5029969;28;20087;-67
2024/01/27 10:29:28;;;;;;;8.75;2.00;;;;;;;;;;5025491;28;20083;-68
2024/01/27 10:31:54;;;;;;;10.05;2.25;;;;;;;;;;5016262;28;20408;-67
2024/01/27 10:34:20;;;;;;;3.17;1.65;;;;;;;;;;5024544;28;20496;-67
2024/01/27 10:36:46;;;;;;;9.65;2.05;;;;;;;;;;5032321;28;20412;-67
2024/01/27 10:39:29;;;;;;;6.15;2.05;;;;;;;;;;5049115;28;20059;-67
2024/01/27 10:41:54;;;;;;;16.15;1.88;;;;;;;;;;5042165;28;20045;-68
2024/01/27 10:44:20;;;;;;;3.65;1.58;;;;;;;;;;5048842;28;20497;-67
2024/01/27 10:46:47;;;;;;;14.15;2.17;;;;;;;;;;5034741;28;20055;-67
2024/01/27 10:49:14;;;;;;;9.02;2.20;;;;;;;;;;5049121;28;20040;-66
2024/01/27 10:51:45;;;;;;;12.13;1.65;;;;;;;;;;5049724;28;20037;-67
2024/01/27 10:54:15;;;;;;;8.38;1.80;;;;;;;;;;5040773;28;20500;-67
2024/01/27 10:56:42;;;;;;;6.55;1.52;;;;;;;;;;5049829;28;20037;-67
2024/01/27 10:59:09;;;;;;;11.02;2.47;;;;;;;;;;5031956;28;20067;-66
2024/01/27 11:01:36;;;;;;;6.80;1.55;;;;;;;;;;5045383;28;20078;-67
2024/01/27 11:04:03;;;;;;;8.50;1.77;;;;;;;;;;5023185;28;20502;-68
2024/01/27 11:06:29;;;;;;;10.93;2.05;;;;;;;;;;5049478;28;20044;-68
2024/01/27 11:08:55;;;;;;;6.40;2.00;;;;;;;;;;5032251;28;20033;-68
2024/01/27 11:11:21;;;;;;;13.68;3.05;;;;;;;;;;5046883;28;20094;-69
2024/01/27 11:13:48;;;;;;;8.75;3.55;;;;;;;;;;5031764;28;20415;-67
2024/01/27 11:16:17;;;;;;;16.92;3.00;;;;;;;;;;5048318;28;20053;-68
2024/01/27 11:18:43;;;;;;;17.27;3.05;;;;;;;;;;5048106;28;20041;-67
2024/01/27 11:21:13;;;;;;;14.27;2.40;;;;;;;;;;5031503;28;20499;-67
2024/01/27 11:23:38;;;;;;;9.77;2.38;;;;;;;;;;5050030;28;20033;-68
2024/01/27 11:26:08;;;;;;;12.93;4.38;;;;;;;;;;5049106;28;20052;-67
2024/01/27 11:28:33;;;;;;;18.70;5.18;;;;;;;;;;5049009;28;20467;-68
2024/01/27 11:31:03;;;;;;;13.38;5.57;;;;;;;;;;5031975;28;20024;-68
2024/01/27 11:33:29;;;;;;;25.00;7.43;;;;;;;;;;5036887;28;20037;-68
2024/01/27 11:36:04;;;;;;;26.38;6.68;;;;;;;;;;5048009;28;20136;-68
2024/01/27 11:38:30;;;;;;;13.65;6.20;;;;;;;;;;5048939;28;20070;-68
2024/01/27 11:40:56;;;;;;;14.75;4.97;;;;;;;;;;5051196;28;20544;-68
2024/01/27 11:43:21;;;;;;;10.27;4.07;;;;;;;;;;5052666;28;20037;-68
2024/01/27 11:46:00;;;;;;;17.70;3.92;;;;;;;;;;5034876;28;20051;-68
2024/01/27 11:48:25;;;;;;;22.27;3.97;;;;;;;;;;5050540;28;20037;-68
2024/01/27 11:51:06;;;;;;;22.85;5.05;;;;;;;;;;5052881;28;20107;-68
2024/01/27 11:53:31;;;;;;;20.58;8.75;;;;;;;;;;5030165;28;20075;-68
2024/01/27 11:55:57;;;;;;;27.83;5.45;;;;;;;;;;5052787;28;20558;-69
2024/01/27 11:58:22;;;;;;;21.77;5.07;;;;;;;;;;5052076;28;20369;-68
2024/01/27 12:00:48;;;;;;;16.63;5.05;;;;;;;;;;5052730;28;20060;-68
2024/01/27 12:03:13;;;;;;;12.20;2.33;;;;;;;;;;5052206;28;20128;-68
2024/01/27 12:05:39;;;;;;;15.80;2.15;;;;;;;;;;5052513;28;20025;-68
2024/01/27 12:08:08;;;;;;;8.38;1.95;;;;;;;;;;5052990;28;20403;-68
2024/01/27 12:10:33;;;;;;;8.50;2.05;;;;;;;;;;5032844;28;20518;-68
2024/01/27 12:12:59;;;;;;;12.45;2.08;;;;;;;;;;5052519;28;20024;-68
2024/01/27 12:15:26;;;;;;;7.22;2.38;;;;;;;;;;5034631;28;20067;-69
2024/01/27 12:17:52;;;;;;;8.98;1.70;;;;;;;;;;5052206;28;20072;-68
2024/01/27 12:20:17;;;;;;;12.20;2.17;;;;;;;;;;5052338;28;20025;-68
2024/01/27 12:22:42;;;;;;;12.68;2.78;;;;;;;;;;5052067;28;20059;-67
2024/01/27 12:25:10;;;;;;;17.13;2.15;;;;;;;;;;5052583;28;20159;-67
2024/01/27 12:27:35;;;;;;;11.15;3.00;;;;;;;;;;5050973;28;20033;-68
2024/01/27 12:30:01;;;;;;;14.20;2.25;;;;;;;;;;5051645;28;20469;-67
2024/01/27 12:32:27;;;;;;;15.25;3.33;;;;;;;;;;5052345;28;20041;-68
2024/01/27 12:34:52;;;;;;;12.95;2.50;;;;;;;;;;5052286;28;20033;-68
2024/01/27 12:37:17;;;;;;;14.98;2.90;;;;;;;;;;5034195;28;20364;-67
2024/01/27 12:39:44;;;;;;;10.02;1.92;;;;;;;;;;5051403;28;20126;-67
2024/01/27 12:42:10;;;;;;;14.25;2.80;;;;;;;;;;5051286;28;20036;-68
2024/01/27 12:44:35;;;;;;;15.32;3.45;;;;;;;;;;5051793;28;20032;-68
2024/01/27 12:47:00;;;;;;;13.55;2.17;;;;;;;;;;5051650;28;20057;-67
2024/01/27 12:49:26;;;;;;;12.25;2.30;;;;;;;;;;5051469;28;20056;-68
2024/01/27 12:51:52;;;;;;;7.50;2.20;;;;;;;;;;5032724;28;20108;-67
2024/01/27 12:54:17;;;;;;;7.32;1.70;;;;;;;;;;5051928;28;20037;-67
2024/01/27 12:56:42;;;;;;;10.02;1.80;;;;;;;;;;5050204;28;20120;-67
2024/01/27 12:59:08;;;;;;;10.45;2.13;;;;;;;;;;5033924;28;20041;-67
2024/01/27 13:01:33;;;;;;;12.40;2.20;;;;;;;;;;5051695;28;20036;-68
2024/01/27 13:03:59;;;;;;;12.38;2.00;;;;;;;;;;5051980;28;20380;-67
2024/01/27 13:06:25;;;;;;;12.20;2.05;;;;;;;;;;5051215;28;20091;-68
2024/01/27 13:08:51;;;;;;;11.32;1.95;;;;;;;;;;5050228;28;20431;-68
2024/01/27 13:11:17;;;;;;;13.02;2.35;;;;;;;;;;5051260;28;20041;-67
2024/01/27 13:13:42;;;;;;;18.27;2.45;;;;;;;;;;5051655;28;20029;-67
2024/01/27 13:16:08;;;;;;;9.60;3.00;;;;;;;;;;5050051;28;20078;-68
2024/01/27 13:18:33;;;;;;;13.60;2.33;;;;;;;;;;5051348;28;20114;-68
2024/01/27 13:20:58;;;;;;;10.68;2.78;;;;;;;;;;5051223;28;20051;-68
2024/01/27 13:23:24;;;;;;;9.48;1.42;;;;;;;;;;5050913;28;20511;-68
2024/01/27 13:25:50;;;;;;;8.27;1.65;;;;;;;;;;5051207;28;20048;-67
2024/01/27 13:28:15;;;;;;;6.93;1.30;;;;;;;;;;5051304;28;20033;-68
2024/01/27 13:30:41;;;;;;;8.05;1.63;;;;;;;;;;5050761;28;20044;-68
2024/01/27 13:33:07;;;;;;;6.38;1.40;;;;;;;;;;5051236;28;20115;-68
2024/01/27 13:35:32;;;;;;;14.20;2.10;;;;;;;;;;5050983;28;20056;-67
2024/01/27 13:37:57;;;;;;;10.35;2.83;;;;;;;;;;5050899;28;20123;-67
2024/01/27 13:40:23;;;;;;;7.30;1.50;;;;;;;;;;5050338;28;20033;-68
2024/01/27 13:42:48;;;;;;;11.85;1.90;;;;;;;;;;5051109;28;20060;-67
2024/01/27 13:45:14;;;;;;;10.80;1.63;;;;;;;;;;5050515;28;20099;-67
2024/01/27 13:47:39;;;;;;;15.82;1.70;;;;;;;;;;5050771;28;20036;-68
2024/01/27 13:50:06;;;;;;;12.23;1.75;;;;;;;;;;5013356;28;20100;-68
2024/01/27 13:52:31;;;;;;;10.30;2.15;;;;;;;;;;5047292;28;20072;-67
2024/01/27 13:54:57;;;;;;;6.85;2.15;;;;;;;;;;5050667;28;20049;-68
2024/01/27 13:57:22;;;;;;;13.10;2.22;;;;;;;;;;5050407;28;20116;-68
2024/01/27 13:59:47;;;;;;;10.85;2.20;;;;;;;;;;5050623;28;20127;-68
2024/01/27 14:02:13;;;;;;;6.47;1.70;;;;;;;;;;5050605;28;20056;-67
2024/01/27 14:04:38;;;;;;;13.35;2.25;;;;;;;;;;5049918;28;20021;-67
2024/01/27 14:07:08;;;;;;;14.30;2.67;;;;;;;;;;5050140;28;20053;-68
2024/01/27 14:09:33;;;;;;;5.93;2.10;;;;;;;;;;5053330;28;20545;-68
2024/01/27 14:11:58;;;;;;;10.27;2.08;;;;;;;;;;5040040;28;20040;-68
2024/01/27 14:14:24;;;;;;;11.68;2.75;;;;;;;;;;5051014;28;20041;-68
2024/01/27 14:16:49;;;;;;;9.80;2.25;;;;;;;;;;5050249;28;20064;-68
2024/01/27 14:19:14;;;;;;;9.05;1.70;;;;;;;;;;5042532;28;20045;-69
2024/01/27 14:21:40;;;;;;;8.70;1.77;;;;;;;;;;5049734;28;20120;-67
2024/01/27 14:24:07;;;;;;;10.95;1.75;;;;;;;;;;5044932;28;20028;-68
2024/01/27 14:26:33;;;;;;;11.38;2.55;;;;;;;;;;5031561;28;20027;-68
2024/01/27 14:28:58;;;;;;;15.80;2.60;;;;;;;;;;5050279;28;20104;-68